sensor_id;sensor_type;location;lat;lon;timestamp;P1;durP1;ratioP1;P2;durP2;ratioP2
52342;SDS011;38277;51.972;4.624;2023-02-28T00:04:42;2.6;;;1.9;;
52342;SDS011;38277;51.972;4.624;2023-02-28T00:10:44;11.1;;;3.4;;
52342;SDS011;38277;51.972;4.624;2023-02-28T00:22:49;5.5;;;2.1;;
52342;SDS011;38277;51.972;4.624;2023-02-28T00:28:51;4.1;;;2.1;;
52342;SDS011;38277;51.972;4.624;2023-02-28T00:37:53;4.7;;;2.3;;
52342;SDS011;38277;51.972;4.624;2023-02-28T00:40:54;7.1;;;2.3;;
52342;SDS011;38277;51.972;4.624;2023-02-28T00:49:57;4.0;;;1.9;;
52342;SDS011;38277;51.972;4.624;2023-02-28T01:02:01;3.9;;;2.1;;
52342;SDS011;38277;51.972;4.624;2023-02-28T01:11:09;3.5;;;2.1;;
52342;SDS011;38277;51.972;4.624;2023-02-28T01:17:07;4.1;;;2.1;;
52342;SDS011;38277;51.972;4.624;2023-02-28T01:26:11;3.0;;;1.9;;
52342;SDS011;38277;51.972;4.624;2023-02-28T01:35:13;4.8;;;2.1;;
52342;SDS011;38277;51.972;4.624;2023-02-28T01:45:05;3.3;;;1.9;;
52342;SDS011;38277;51.972;4.624;2023-02-28T02:02:25;3.3;;;2.2;;
52342;SDS011;38277;51.972;4.624;2023-02-28T02:11:26;3.3;;;1.6;;
52342;SDS011;38277;51.972;4.624;2023-02-28T02:25:58;4.5;;;2.0;;
52342;SDS011;38277;51.972;4.624;2023-02-28T02:34:39;4.0;;;2.0;;
52342;SDS011;38277;51.972;4.624;2023-02-28T02:34:43;4.0;;;2.0;;
52342;SDS011;38277;51.972;4.624;2023-02-28T02:42:45;4.4;;;2.4;;
52342;SDS011;38277;51.972;4.624;2023-02-28T02:47:49;4.5;;;2.1;;
52342;SDS011;38277;51.972;4.624;2023-02-28T02:59:42;3.8;;;1.9;;
52342;SDS011;38277;51.972;4.624;2023-02-28T03:05:50;4.8;;;2.3;;
52342;SDS011;38277;51.972;4.624;2023-02-28T03:15:17;4.4;;;2.0;;
52342;SDS011;38277;51.972;4.624;2023-02-28T03:25:17;3.8;;;2.0;;
52342;SDS011;38277;51.972;4.624;2023-02-28T03:36:02;5.7;;;2.4;;
52342;SDS011;38277;51.972;4.624;2023-02-28T03:41:57;6.3;;;2.8;;
52342;SDS011;38277;51.972;4.624;2023-02-28T03:51:01;4.2;;;2.2;;
52342;SDS011;38277;51.972;4.624;2023-02-28T04:00:04;4.8;;;2.4;;
52342;SDS011;38277;51.972;4.624;2023-02-28T04:12:07;6.1;;;2.4;;
52342;SDS011;38277;51.972;4.624;2023-02-28T04:18:09;6.0;;;2.4;;
52342;SDS011;38277;51.972;4.624;2023-02-28T04:39:17;4.9;;;2.9;;
52342;SDS011;38277;51.972;4.624;2023-02-28T04:48:20;4.5;;;2.7;;
52342;SDS011;38277;51.972;4.624;2023-02-28T04:57:23;5.5;;;2.5;;
52342;SDS011;38277;51.972;4.624;2023-02-28T05:03:25;8.8;;;3.9;;
52342;SDS011;38277;51.972;4.624;2023-02-28T05:12:28;9.6;;;5.2;;
52342;SDS011;38277;51.972;4.624;2023-02-28T05:24:32;11.5;;;4.9;;
52342;SDS011;38277;51.972;4.624;2023-02-28T05:30:34;9.3;;;4.3;;
52342;SDS011;38277;51.972;4.624;2023-02-28T05:39:38;8.6;;;4.1;;
52342;SDS011;38277;51.972;4.624;2023-02-28T05:48:41;7.6;;;3.6;;
52342;SDS011;38277;51.972;4.624;2023-02-28T06:00:45;8.7;;;3.5;;
52342;SDS011;38277;51.972;4.624;2023-02-28T06:06:47;9.6;;;4.9;;
52342;SDS011;38277;51.972;4.624;2023-02-28T06:18:51;10.2;;;4.6;;
52342;SDS011;38277;51.972;4.624;2023-02-28T06:24:53;7.4;;;3.6;;
52342;SDS011;38277;51.972;4.624;2023-02-28T06:36:59;8.9;;;3.9;;
52342;SDS011;38277;51.972;4.624;2023-02-28T06:42:59;8.8;;;3.7;;
52342;SDS011;38277;51.972;4.624;2023-02-28T06:52:03;5.0;;;3.2;;
52342;SDS011;38277;51.972;4.624;2023-02-28T07:01:07;7.2;;;3.4;;
52342;SDS011;38277;51.972;4.624;2023-02-28T07:13:10;7.4;;;4.0;;
52342;SDS011;38277;51.972;4.624;2023-02-28T07:20:46;5.8;;;3.3;;
52342;SDS011;38277;51.972;4.624;2023-02-28T07:32:51;6.6;;;3.3;;
52342;SDS011;38277;51.972;4.624;2023-02-28T07:48:01;5.7;;;3.3;;
52342;SDS011;38277;51.972;4.624;2023-02-28T07:57:04;5.9;;;3.3;;
52342;SDS011;38277;51.972;4.624;2023-02-28T08:12:09;5.8;;;2.8;;
52342;SDS011;38277;51.972;4.624;2023-02-28T08:15:10;8.1;;;3.9;;
52342;SDS011;38277;51.972;4.624;2023-02-28T08:27:14;5.8;;;3.3;;
52342;SDS011;38277;51.972;4.624;2023-02-28T08:33:17;6.6;;;3.1;;
52342;SDS011;38277;51.972;4.624;2023-02-28T08:42:28;7.6;;;3.3;;
52342;SDS011;38277;51.972;4.624;2023-02-28T08:51:23;6.7;;;3.3;;
52342;SDS011;38277;51.972;4.624;2023-02-28T09:00:26;6.7;;;3.9;;
52342;SDS011;38277;51.972;4.624;2023-02-28T09:09:29;6.9;;;3.5;;
52342;SDS011;38277;51.972;4.624;2023-02-28T09:18:33;7.7;;;3.9;;
52342;SDS011;38277;51.972;4.624;2023-02-28T09:27:35;7.1;;;4.2;;
52342;SDS011;38277;51.972;4.624;2023-02-28T09:39:39;10.6;;;4.0;;
52342;SDS011;38277;51.972;4.624;2023-02-28T09:54:45;9.4;;;3.9;;
52342;SDS011;38277;51.972;4.624;2023-02-28T10:04:42;5.3;;;3.2;;
52342;SDS011;38277;51.972;4.624;2023-02-28T10:21:55;6.6;;;3.6;;
52342;SDS011;38277;51.972;4.624;2023-02-28T10:30:59;10.6;;;3.7;;
52342;SDS011;38277;51.972;4.624;2023-02-28T10:43:02;5.4;;;3.1;;
52342;SDS011;38277;51.972;4.624;2023-02-28T10:46:04;8.4;;;3.9;;
52342;SDS011;38277;51.972;4.624;2023-02-28T10:55:25;6.5;;;2.7;;
52342;SDS011;38277;51.972;4.624;2023-02-28T10:58:24;3.5;;;2.4;;
52342;SDS011;38277;51.972;4.624;2023-02-28T11:09:18;4.9;;;2.6;;
52342;SDS011;38277;51.972;4.624;2023-02-28T11:12:07;4.8;;;2.4;;
52342;SDS011;38277;51.972;4.624;2023-02-28T11:19:41;2.9;;;1.9;;
52342;SDS011;38277;51.972;4.624;2023-02-28T11:25:40;3.7;;;1.9;;
52342;SDS011;38277;51.972;4.624;2023-02-28T11:32:48;2.4;;;1.8;;
52342;SDS011;38277;51.972;4.624;2023-02-28T11:38:50;2.7;;;1.9;;
52342;SDS011;38277;51.972;4.624;2023-02-28T11:47:02;3.9;;;2.0;;
52342;SDS011;38277;51.972;4.624;2023-02-28T11:53:02;3.6;;;1.9;;
52342;SDS011;38277;51.972;4.624;2023-02-28T12:03:52;3.5;;;2.2;;
52342;SDS011;38277;51.972;4.624;2023-02-28T12:06:44;3.9;;;2.3;;
52342;SDS011;38277;51.972;4.624;2023-02-28T12:13:56;2.5;;;1.8;;
52342;SDS011;38277;51.972;4.624;2023-02-28T12:20:42;3.9;;;1.9;;
52342;SDS011;38277;51.972;4.624;2023-02-28T12:27:36;1.8;;;1.5;;
52342;SDS011;38277;51.972;4.624;2023-02-28T12:40:26;2.6;;;1.4;;
52342;SDS011;38277;51.972;4.624;2023-02-28T12:54:47;2.0;;;1.4;;
52342;SDS011;38277;51.972;4.624;2023-02-28T13:00:12;2.3;;;1.5;;
52342;SDS011;38277;51.972;4.624;2023-02-28T13:09:19;2.4;;;1.3;;
52342;SDS011;38277;51.972;4.624;2023-02-28T13:13:37;2.1;;;1.4;;
52342;SDS011;38277;51.972;4.624;2023-02-28T13:24:04;2.2;;;1.5;;
52342;SDS011;38277;51.972;4.624;2023-02-28T13:27:39;2.4;;;1.2;;
52342;SDS011;38277;51.972;4.624;2023-02-28T13:32:44;2.9;;;1.5;;
52342;SDS011;38277;51.972;4.624;2023-02-28T13:39:44;3.4;;;1.3;;
52342;SDS011;38277;51.972;4.624;2023-02-28T13:45:26;2.8;;;1.5;;
52342;SDS011;38277;51.972;4.624;2023-02-28T13:59:15;3.4;;;1.2;;
52342;SDS011;38277;51.972;4.624;2023-02-28T14:06:14;1.2;;;1.0;;
52342;SDS011;38277;51.972;4.624;2023-02-28T14:11:03;3.2;;;1.4;;
52342;SDS011;38277;51.972;4.624;2023-02-28T14:23:39;6.1;;;1.8;;
52342;SDS011;38277;51.972;4.624;2023-02-28T14:30:56;2.5;;;1.2;;
52342;SDS011;38277;51.972;4.624;2023-02-28T14:38:17;2.4;;;1.3;;
52342;SDS011;38277;51.972;4.624;2023-02-28T14:47:15;2.3;;;1.5;;
52342;SDS011;38277;51.972;4.624;2023-02-28T14:59:25;1.7;;;1.2;;
52342;SDS011;38277;51.972;4.624;2023-02-28T15:05:27;3.1;;;1.3;;
52342;SDS011;38277;51.972;4.624;2023-02-28T15:14:21;2.9;;;1.8;;
52342;SDS011;38277;51.972;4.624;2023-02-28T15:23:24;2.8;;;2.4;;
52342;SDS011;38277;51.972;4.624;2023-02-28T15:35:30;2.5;;;1.6;;
52342;SDS011;38277;51.972;4.624;2023-02-28T15:59:36;4.1;;;2.1;;
52342;SDS011;38277;51.972;4.624;2023-02-28T16:07:20;4.0;;;2.3;;
52342;SDS011;38277;51.972;4.624;2023-02-28T16:16:29;3.9;;;2.2;;
52342;SDS011;38277;51.972;4.624;2023-02-28T16:25:38;5.3;;;2.4;;
52342;SDS011;38277;51.972;4.624;2023-02-28T16:34:36;4.7;;;2.5;;
52342;SDS011;38277;51.972;4.624;2023-02-28T16:43:39;4.1;;;2.8;;
52342;SDS011;38277;51.972;4.624;2023-02-28T16:52:42;4.9;;;2.4;;
52342;SDS011;38277;51.972;4.624;2023-02-28T17:01:45;12.8;;;6.5;;
52342;SDS011;38277;51.972;4.624;2023-02-28T17:13:49;7.5;;;3.6;;
52342;SDS011;38277;51.972;4.624;2023-02-28T17:19:51;6.2;;;3.8;;
52342;SDS011;38277;51.972;4.624;2023-02-28T17:28:55;4.4;;;2.8;;
52342;SDS011;38277;51.972;4.624;2023-02-28T17:40:58;5.5;;;3.2;;
52342;SDS011;38277;51.972;4.624;2023-02-28T17:50:02;6.2;;;3.2;;
52342;SDS011;38277;51.972;4.624;2023-02-28T17:56:04;6.6;;;3.5;;
52342;SDS011;38277;51.972;4.624;2023-02-28T18:05:08;4.6;;;3.1;;
52342;SDS011;38277;51.972;4.624;2023-02-28T18:14:10;7.8;;;3.7;;
52342;SDS011;38277;51.972;4.624;2023-02-28T18:29:17;5.8;;;3.0;;
52342;SDS011;38277;51.972;4.624;2023-02-28T18:32:17;5.9;;;2.9;;
52342;SDS011;38277;51.972;4.624;2023-02-28T18:41:20;5.5;;;3.3;;
52342;SDS011;38277;51.972;4.624;2023-02-28T18:50:23;7.0;;;3.8;;
52342;SDS011;38277;51.972;4.624;2023-02-28T18:59:26;7.6;;;4.1;;
52342;SDS011;38277;51.972;4.624;2023-02-28T19:08:29;7.3;;;4.0;;
52342;SDS011;38277;51.972;4.624;2023-02-28T19:17:32;7.7;;;3.6;;
52342;SDS011;38277;51.972;4.624;2023-02-28T19:26:35;7.3;;;3.9;;
52342;SDS011;38277;51.972;4.624;2023-02-28T19:38:39;9.2;;;4.3;;
52342;SDS011;38277;51.972;4.624;2023-02-28T19:47:43;7.3;;;4.3;;
52342;SDS011;38277;51.972;4.624;2023-02-28T19:53:44;8.4;;;4.9;;
52342;SDS011;38277;51.972;4.624;2023-02-28T20:02:48;8.8;;;4.7;;
52342;SDS011;38277;51.972;4.624;2023-02-28T20:11:51;8.9;;;5.5;;
52342;SDS011;38277;51.972;4.624;2023-02-28T20:20:54;9.0;;;4.8;;
52342;SDS011;38277;51.972;4.624;2023-02-28T20:32:58;8.4;;;4.9;;
52342;SDS011;38277;51.972;4.624;2023-02-28T20:39:00;11.6;;;5.9;;
52342;SDS011;38277;51.972;4.624;2023-02-28T20:51:04;11.4;;;6.1;;
52342;SDS011;38277;51.972;4.624;2023-02-28T20:57:06;8.9;;;5.4;;
52342;SDS011;38277;51.972;4.624;2023-02-28T21:06:09;10.9;;;5.2;;
52342;SDS011;38277;51.972;4.624;2023-02-28T21:15:13;11.4;;;6.0;;
52342;SDS011;38277;51.972;4.624;2023-02-28T21:24:17;13.1;;;6.8;;
52342;SDS011;38277;51.972;4.624;2023-02-28T21:27:17;11.6;;;6.4;;
52342;SDS011;38277;51.972;4.624;2023-02-28T21:33:19;13.4;;;7.2;;
52342;SDS011;38277;51.972;4.624;2023-02-28T21:40:20;13.1;;;6.8;;
52342;SDS011;38277;51.972;4.624;2023-02-28T21:46:23;13.4;;;6.7;;
52342;SDS011;38277;51.972;4.624;2023-02-28T21:52:25;13.2;;;6.6;;
52342;SDS011;38277;51.972;4.624;2023-02-28T21:58:35;13.2;;;7.0;;
52342;SDS011;38277;51.972;4.624;2023-02-28T22:04:37;15.3;;;7.5;;
52342;SDS011;38277;51.972;4.624;2023-02-28T22:11:40;13.8;;;6.3;;
52342;SDS011;38277;51.972;4.624;2023-02-28T22:20:43;13.9;;;7.3;;
52342;SDS011;38277;51.972;4.624;2023-02-28T22:23:44;13.5;;;6.9;;
52342;SDS011;38277;51.972;4.624;2023-02-28T22:29:46;13.7;;;7.0;;
52342;SDS011;38277;51.972;4.624;2023-02-28T22:35:49;14.4;;;7.4;;
52342;SDS011;38277;51.972;4.624;2023-02-28T22:43:15;12.1;;;6.8;;
52342;SDS011;38277;51.972;4.624;2023-02-28T22:49:17;12.3;;;6.4;;
52342;SDS011;38277;51.972;4.624;2023-02-28T22:56:52;13.5;;;7.3;;
52342;SDS011;38277;51.972;4.624;2023-02-28T23:02:54;15.4;;;8.8;;
52342;SDS011;38277;51.972;4.624;2023-02-28T23:10:39;14.3;;;7.8;;
52342;SDS011;38277;51.972;4.624;2023-02-28T23:15:34;13.4;;;8.0;;
52342;SDS011;38277;51.972;4.624;2023-02-28T23:23:41;13.2;;;7.6;;
52342;SDS011;38277;51.972;4.624;2023-02-28T23:28:28;14.9;;;8.2;;
52342;SDS011;38277;51.972;4.624;2023-02-28T23:37:26;12.7;;;7.2;;
52342;SDS011;38277;51.972;4.624;2023-02-28T23:42:06;14.9;;;8.3;;
52342;SDS011;38277;51.972;4.624;2023-02-28T23:46:18;16.5;;;9.5;;
52342;SDS011;38277;51.972;4.624;2023-02-28T23:50:58;15.9;;;8.0;;
52342;SDS011;38277;51.972;4.624;2023-02-28T23:59:52;16.5;;;8.4;;
